sensor_id;sensor_type;location;lat;lon;timestamp;temperature;humidity
23116;DHT22;11727;52.134;5.052;2022-11-04T00:01:38;11.00;99.90
23116;DHT22;11727;52.134;5.052;2022-11-04T00:04:04;10.90;99.90
23116;DHT22;11727;52.134;5.052;2022-11-04T00:06:29;10.90;99.90
23116;DHT22;11727;52.134;5.052;2022-11-04T00:08:57;11.00;99.90
23116;DHT22;11727;52.134;5.052;2022-11-04T00:11:22;10.90;99.90
23116;DHT22;11727;52.134;5.052;2022-11-04T00:14:08;11.00;99.90
23116;DHT22;11727;52.134;5.052;2022-11-04T00:16:33;10.90;99.90
23116;DHT22;11727;52.134;5.052;2022-11-04T00:19:18;10.90;99.90
23116;DHT22;11727;52.134;5.052;2022-11-04T00:21:44;10.90;99.90
23116;DHT22;11727;52.134;5.052;2022-11-04T00:24:28;10.90;99.90
23116;DHT22;11727;52.134;5.052;2022-11-04T00:27:14;10.80;99.90
23116;DHT22;11727;52.134;5.052;2022-11-04T00:29:58;10.80;99.90
23116;DHT22;11727;52.134;5.052;2022-11-04T00:32:24;10.80;99.90
23116;DHT22;11727;52.134;5.052;2022-11-04T00:35:10;10.80;99.90
23116;DHT22;11727;52.134;5.052;2022-11-04T00:37:40;10.80;99.90
23116;DHT22;11727;52.134;5.052;2022-11-04T00:40:07;10.80;99.90
23116;DHT22;11727;52.134;5.052;2022-11-04T00:42:34;10.80;99.90
23116;DHT22;11727;52.134;5.052;2022-11-04T00:44:59;10.80;99.90
23116;DHT22;11727;52.134;5.052;2022-11-04T00:47:25;10.80;99.90
23116;DHT22;11727;52.134;5.052;2022-11-04T00:49:51;10.80;99.90
23116;DHT22;11727;52.134;5.052;2022-11-04T00:52:17;10.80;99.90
23116;DHT22;11727;52.134;5.052;2022-11-04T00:54:42;10.70;99.90
23116;DHT22;11727;52.134;5.052;2022-11-04T00:57:09;10.70;99.90
23116;DHT22;11727;52.134;5.052;2022-11-04T00:59:34;10.70;99.90
23116;DHT22;11727;52.134;5.052;2022-11-04T01:02:00;10.70;99.90
23116;DHT22;11727;52.134;5.052;2022-11-04T01:04:26;10.70;99.90
23116;DHT22;11727;52.134;5.052;2022-11-04T01:06:51;10.70;99.90
23116;DHT22;11727;52.134;5.052;2022-11-04T01:09:17;10.70;99.90
23116;DHT22;11727;52.134;5.052;2022-11-04T01:11:43;10.70;99.90
23116;DHT22;11727;52.134;5.052;2022-11-04T01:14:09;10.60;99.90
23116;DHT22;11727;52.134;5.052;2022-11-04T01:16:35;10.60;99.90
23116;DHT22;11727;52.134;5.052;2022-11-04T01:19:01;10.60;99.90
23116;DHT22;11727;52.134;5.052;2022-11-04T01:21:27;10.60;99.90
23116;DHT22;11727;52.134;5.052;2022-11-04T01:23:52;10.60;99.90
23116;DHT22;11727;52.134;5.052;2022-11-04T01:26:21;10.60;99.90
23116;DHT22;11727;52.134;5.052;2022-11-04T01:28:46;10.60;99.90
23116;DHT22;11727;52.134;5.052;2022-11-04T01:31:15;10.50;99.90
23116;DHT22;11727;52.134;5.052;2022-11-04T01:33:41;10.50;99.90
23116;DHT22;11727;52.134;5.052;2022-11-04T01:36:11;10.50;99.90
23116;DHT22;11727;52.134;5.052;2022-11-04T01:38:37;10.50;99.90
23116;DHT22;11727;52.134;5.052;2022-11-04T01:41:03;10.50;99.90
23116;DHT22;11727;52.134;5.052;2022-11-04T01:46:48;10.40;99.90
23116;DHT22;11727;52.134;5.052;2022-11-04T01:49:25;10.40;99.90
23116;DHT22;11727;52.134;5.052;2022-11-04T01:51:55;10.40;99.90
23116;DHT22;11727;52.134;5.052;2022-11-04T01:54:22;10.30;99.90
23116;DHT22;11727;52.134;5.052;2022-11-04T01:56:48;10.30;99.90
23116;DHT22;11727;52.134;5.052;2022-11-04T01:59:25;10.30;99.90
23116;DHT22;11727;52.134;5.052;2022-11-04T02:01:52;10.30;99.90
23116;DHT22;11727;52.134;5.052;2022-11-04T02:04:18;10.30;99.90
23116;DHT22;11727;52.134;5.052;2022-11-04T02:06:57;10.20;99.90
23116;DHT22;11727;52.134;5.052;2022-11-04T02:09:25;10.30;99.90
23116;DHT22;11727;52.134;5.052;2022-11-04T02:11:52;10.30;99.90
23116;DHT22;11727;52.134;5.052;2022-11-04T02:14:36;10.30;99.90
23116;DHT22;11727;52.134;5.052;2022-11-04T02:32:09;10.10;99.90
23116;DHT22;11727;52.134;5.052;2022-11-04T02:34:53;10.10;99.90
23116;DHT22;11727;52.134;5.052;2022-11-04T02:37:41;10.10;99.90
23116;DHT22;11727;52.134;5.052;2022-11-04T02:40:34;10.10;99.90
23116;DHT22;11727;52.134;5.052;2022-11-04T02:43:18;10.00;99.90
23116;DHT22;11727;52.134;5.052;2022-11-04T02:45:49;10.00;99.90
23116;DHT22;11727;52.134;5.052;2022-11-04T02:48:37;10.00;99.90
23116;DHT22;11727;52.134;5.052;2022-11-04T02:51:18;10.00;99.90
23116;DHT22;11727;52.134;5.052;2022-11-04T02:54:08;10.00;99.90
23116;DHT22;11727;52.134;5.052;2022-11-04T02:56:38;10.00;99.90
23116;DHT22;11727;52.134;5.052;2022-11-04T02:59:13;10.00;99.90
23116;DHT22;11727;52.134;5.052;2022-11-04T03:01:42;9.90;99.90
23116;DHT22;11727;52.134;5.052;2022-11-04T03:04:15;9.90;99.90
23116;DHT22;11727;52.134;5.052;2022-11-04T03:06:43;9.90;99.90
23116;DHT22;11727;52.134;5.052;2022-11-04T03:09:13;9.90;99.90
23116;DHT22;11727;52.134;5.052;2022-11-04T03:11:39;9.90;99.90
23116;DHT22;11727;52.134;5.052;2022-11-04T03:14:16;9.90;99.90
23116;DHT22;11727;52.134;5.052;2022-11-04T03:16:51;9.80;99.90
23116;DHT22;11727;52.134;5.052;2022-11-04T03:19:44;9.80;99.90
23116;DHT22;11727;52.134;5.052;2022-11-04T03:22:16;9.80;99.90
23116;DHT22;11727;52.134;5.052;2022-11-04T03:24:44;9.80;99.90
23116;DHT22;11727;52.134;5.052;2022-11-04T03:27:37;9.80;99.90
23116;DHT22;11727;52.134;5.052;2022-11-04T03:30:07;9.80;99.90
23116;DHT22;11727;52.134;5.052;2022-11-04T03:35:06;9.80;99.90
23116;DHT22;11727;52.134;5.052;2022-11-04T03:37:33;9.70;99.90
23116;DHT22;11727;52.134;5.052;2022-11-04T03:39:59;9.70;99.90
23116;DHT22;11727;52.134;5.052;2022-11-04T03:42:26;9.70;99.90
23116;DHT22;11727;52.134;5.052;2022-11-04T03:44:56;9.70;99.90
23116;DHT22;11727;52.134;5.052;2022-11-04T03:47:26;9.70;99.90
23116;DHT22;11727;52.134;5.052;2022-11-04T03:50:04;9.60;99.90
23116;DHT22;11727;52.134;5.052;2022-11-04T03:52:34;9.60;99.90
23116;DHT22;11727;52.134;5.052;2022-11-04T03:55:00;9.60;99.90
23116;DHT22;11727;52.134;5.052;2022-11-04T03:57:36;9.60;99.90
23116;DHT22;11727;52.134;5.052;2022-11-04T04:00:09;9.60;99.90
23116;DHT22;11727;52.134;5.052;2022-11-04T04:02:56;9.50;99.90
23116;DHT22;11727;52.134;5.052;2022-11-04T04:05:50;9.50;99.90
23116;DHT22;11727;52.134;5.052;2022-11-04T04:08:41;9.50;99.90
23116;DHT22;11727;52.134;5.052;2022-11-04T04:16:32;9.40;99.90
23116;DHT22;11727;52.134;5.052;2022-11-04T04:19:19;9.30;99.90
23116;DHT22;11727;52.134;5.052;2022-11-04T04:21:54;9.30;99.90
23116;DHT22;11727;52.134;5.052;2022-11-04T04:24:25;9.30;99.90
23116;DHT22;11727;52.134;5.052;2022-11-04T04:27:11;9.30;99.90
23116;DHT22;11727;52.134;5.052;2022-11-04T04:30:04;9.30;99.90
23116;DHT22;11727;52.134;5.052;2022-11-04T04:32:34;9.20;99.90
23116;DHT22;11727;52.134;5.052;2022-11-04T04:35:00;9.20;99.90
23116;DHT22;11727;52.134;5.052;2022-11-04T04:37:45;9.20;99.90
23116;DHT22;11727;52.134;5.052;2022-11-04T04:40:15;9.20;99.90
23116;DHT22;11727;52.134;5.052;2022-11-04T04:43:01;9.20;99.90
23116;DHT22;11727;52.134;5.052;2022-11-04T04:45:51;9.20;99.90
23116;DHT22;11727;52.134;5.052;2022-11-04T04:48:17;9.10;99.90
23116;DHT22;11727;52.134;5.052;2022-11-04T04:50:45;9.10;99.90
23116;DHT22;11727;52.134;5.052;2022-11-04T04:53:13;9.10;99.90
23116;DHT22;11727;52.134;5.052;2022-11-04T04:55:38;9.10;99.90
23116;DHT22;11727;52.134;5.052;2022-11-04T04:58:04;9.10;99.90
23116;DHT22;11727;52.134;5.052;2022-11-04T05:00:30;9.10;99.90
23116;DHT22;11727;52.134;5.052;2022-11-04T05:02:58;9.20;99.90
23116;DHT22;11727;52.134;5.052;2022-11-04T05:05:24;9.20;99.90
23116;DHT22;11727;52.134;5.052;2022-11-04T05:07:50;9.20;99.90
23116;DHT22;11727;52.134;5.052;2022-11-04T05:10:16;9.20;99.90
23116;DHT22;11727;52.134;5.052;2022-11-04T05:12:42;9.20;99.90
23116;DHT22;11727;52.134;5.052;2022-11-04T05:15:34;9.30;99.90
23116;DHT22;11727;52.134;5.052;2022-11-04T05:18:00;9.30;99.90
23116;DHT22;11727;52.134;5.052;2022-11-04T05:20:26;9.30;99.90
23116;DHT22;11727;52.134;5.052;2022-11-04T05:22:54;9.30;99.90
23116;DHT22;11727;52.134;5.052;2022-11-04T05:25:19;9.30;99.90
23116;DHT22;11727;52.134;5.052;2022-11-04T05:27:45;9.30;99.90
23116;DHT22;11727;52.134;5.052;2022-11-04T05:30:10;9.20;99.90
23116;DHT22;11727;52.134;5.052;2022-11-04T05:32:36;9.20;99.90
23116;DHT22;11727;52.134;5.052;2022-11-04T05:35:02;9.10;99.90
23116;DHT22;11727;52.134;5.052;2022-11-04T05:37:27;9.10;99.90
23116;DHT22;11727;52.134;5.052;2022-11-04T05:39:53;9.10;99.90
23116;DHT22;11727;52.134;5.052;2022-11-04T05:42:19;9.00;99.90
23116;DHT22;11727;52.134;5.052;2022-11-04T05:44:44;9.00;99.90
23116;DHT22;11727;52.134;5.052;2022-11-04T05:47:10;9.00;99.90
23116;DHT22;11727;52.134;5.052;2022-11-04T05:49:35;8.90;99.90
23116;DHT22;11727;52.134;5.052;2022-11-04T05:52:01;8.90;99.90
23116;DHT22;11727;52.134;5.052;2022-11-04T05:54:26;8.90;99.90
23116;DHT22;11727;52.134;5.052;2022-11-04T05:56:52;8.90;99.90
23116;DHT22;11727;52.134;5.052;2022-11-04T05:59:18;8.80;99.90
23116;DHT22;11727;52.134;5.052;2022-11-04T06:01:43;8.80;99.90
23116;DHT22;11727;52.134;5.052;2022-11-04T06:04:14;8.80;99.90
23116;DHT22;11727;52.134;5.052;2022-11-04T06:06:40;8.90;99.90
23116;DHT22;11727;52.134;5.052;2022-11-04T06:09:05;8.80;99.90
23116;DHT22;11727;52.134;5.052;2022-11-04T06:11:32;8.80;99.90
23116;DHT22;11727;52.134;5.052;2022-11-04T06:13:59;8.80;99.90
23116;DHT22;11727;52.134;5.052;2022-11-04T06:16:25;8.80;99.90
23116;DHT22;11727;52.134;5.052;2022-11-04T06:18:51;8.80;99.90
23116;DHT22;11727;52.134;5.052;2022-11-04T06:21:24;8.80;99.90
23116;DHT22;11727;52.134;5.052;2022-11-04T06:23:51;8.70;99.90
23116;DHT22;11727;52.134;5.052;2022-11-04T06:26:17;8.70;99.90
23116;DHT22;11727;52.134;5.052;2022-11-04T06:28:43;8.70;99.90
23116;DHT22;11727;52.134;5.052;2022-11-04T06:31:10;8.70;99.90
23116;DHT22;11727;52.134;5.052;2022-11-04T06:33:37;8.70;99.90
23116;DHT22;11727;52.134;5.052;2022-11-04T06:36:05;8.60;99.90
23116;DHT22;11727;52.134;5.052;2022-11-04T06:38:32;8.60;99.90
23116;DHT22;11727;52.134;5.052;2022-11-04T06:40:58;8.60;99.90
23116;DHT22;11727;52.134;5.052;2022-11-04T06:43:24;8.60;99.90
23116;DHT22;11727;52.134;5.052;2022-11-04T06:45:53;8.60;99.90
23116;DHT22;11727;52.134;5.052;2022-11-04T06:48:19;8.60;99.90
23116;DHT22;11727;52.134;5.052;2022-11-04T06:50:44;8.50;99.90
23116;DHT22;11727;52.134;5.052;2022-11-04T06:53:10;8.60;99.90
23116;DHT22;11727;52.134;5.052;2022-11-04T06:55:35;8.50;99.90
23116;DHT22;11727;52.134;5.052;2022-11-04T06:58:01;8.50;99.90
23116;DHT22;11727;52.134;5.052;2022-11-04T07:00:27;8.50;99.90
23116;DHT22;11727;52.134;5.052;2022-11-04T07:02:52;8.50;99.90
23116;DHT22;11727;52.134;5.052;2022-11-04T07:05:18;8.50;99.90
23116;DHT22;11727;52.134;5.052;2022-11-04T07:07:44;8.60;99.90
23116;DHT22;11727;52.134;5.052;2022-11-04T07:10:09;8.50;99.90
23116;DHT22;11727;52.134;5.052;2022-11-04T07:12:35;8.50;99.90
23116;DHT22;11727;52.134;5.052;2022-11-04T07:15:01;8.50;99.90
23116;DHT22;11727;52.134;5.052;2022-11-04T07:17:27;8.50;99.90
23116;DHT22;11727;52.134;5.052;2022-11-04T07:19:52;8.50;99.90
23116;DHT22;11727;52.134;5.052;2022-11-04T07:22:18;8.50;99.90
23116;DHT22;11727;52.134;5.052;2022-11-04T07:24:43;8.50;99.90
23116;DHT22;11727;52.134;5.052;2022-11-04T07:27:09;8.50;99.90
23116;DHT22;11727;52.134;5.052;2022-11-04T07:29:34;8.50;99.90
23116;DHT22;11727;52.134;5.052;2022-11-04T07:32:00;8.60;99.90
23116;DHT22;11727;52.134;5.052;2022-11-04T07:34:25;8.60;99.90
23116;DHT22;11727;52.134;5.052;2022-11-04T07:36:52;8.60;99.90
23116;DHT22;11727;52.134;5.052;2022-11-04T07:39:18;8.70;99.90
23116;DHT22;11727;52.134;5.052;2022-11-04T07:41:44;8.70;99.90
23116;DHT22;11727;52.134;5.052;2022-11-04T07:44:10;8.70;99.90
23116;DHT22;11727;52.134;5.052;2022-11-04T07:46:36;8.80;99.90
23116;DHT22;11727;52.134;5.052;2022-11-04T07:49:02;8.80;99.90
23116;DHT22;11727;52.134;5.052;2022-11-04T07:51:28;8.80;99.90
23116;DHT22;11727;52.134;5.052;2022-11-04T07:53:56;8.90;99.90
23116;DHT22;11727;52.134;5.052;2022-11-04T07:56:22;8.90;99.90
23116;DHT22;11727;52.134;5.052;2022-11-04T07:58:48;8.90;99.90
23116;DHT22;11727;52.134;5.052;2022-11-04T08:01:17;8.90;99.90
23116;DHT22;11727;52.134;5.052;2022-11-04T08:03:43;8.90;99.90
23116;DHT22;11727;52.134;5.052;2022-11-04T08:06:11;8.90;99.90
23116;DHT22;11727;52.134;5.052;2022-11-04T08:08:37;8.90;99.90
23116;DHT22;11727;52.134;5.052;2022-11-04T08:11:14;8.90;99.90
23116;DHT22;11727;52.134;5.052;2022-11-04T08:13:40;9.00;99.90
23116;DHT22;11727;52.134;5.052;2022-11-04T08:16:10;9.00;99.90
23116;DHT22;11727;52.134;5.052;2022-11-04T08:18:37;9.00;99.90
23116;DHT22;11727;52.134;5.052;2022-11-04T08:21:03;9.00;99.90
23116;DHT22;11727;52.134;5.052;2022-11-04T08:23:30;9.00;99.90
23116;DHT22;11727;52.134;5.052;2022-11-04T08:25:56;9.10;99.90
23116;DHT22;11727;52.134;5.052;2022-11-04T08:28:25;9.10;99.90
23116;DHT22;11727;52.134;5.052;2022-11-04T08:30:56;9.10;99.90
23116;DHT22;11727;52.134;5.052;2022-11-04T08:33:24;9.10;99.90
23116;DHT22;11727;52.134;5.052;2022-11-04T08:35:49;9.20;99.90
23116;DHT22;11727;52.134;5.052;2022-11-04T08:38:18;9.20;99.90
23116;DHT22;11727;52.134;5.052;2022-11-04T08:40:44;9.20;99.90
23116;DHT22;11727;52.134;5.052;2022-11-04T08:43:09;9.30;99.90
23116;DHT22;11727;52.134;5.052;2022-11-04T08:45:41;9.30;99.90
23116;DHT22;11727;52.134;5.052;2022-11-04T08:48:06;9.30;99.90
23116;DHT22;11727;52.134;5.052;2022-11-04T08:50:32;9.30;99.90
23116;DHT22;11727;52.134;5.052;2022-11-04T08:52:58;9.40;99.90
23116;DHT22;11727;52.134;5.052;2022-11-04T08:55:23;9.40;99.90
23116;DHT22;11727;52.134;5.052;2022-11-04T08:57:49;9.40;99.90
23116;DHT22;11727;52.134;5.052;2022-11-04T09:00:15;9.50;99.90
23116;DHT22;11727;52.134;5.052;2022-11-04T09:02:41;9.50;99.90
23116;DHT22;11727;52.134;5.052;2022-11-04T09:05:07;9.50;99.90
23116;DHT22;11727;52.134;5.052;2022-11-04T09:07:34;9.60;99.90
23116;DHT22;11727;52.134;5.052;2022-11-04T09:10:00;9.60;99.90
23116;DHT22;11727;52.134;5.052;2022-11-04T09:12:26;9.60;99.90
23116;DHT22;11727;52.134;5.052;2022-11-04T09:14:52;9.60;99.90
23116;DHT22;11727;52.134;5.052;2022-11-04T09:17:18;9.70;99.90
23116;DHT22;11727;52.134;5.052;2022-11-04T09:19:43;9.70;99.90
23116;DHT22;11727;52.134;5.052;2022-11-04T09:22:09;9.70;99.90
23116;DHT22;11727;52.134;5.052;2022-11-04T09:24:34;9.80;99.90
23116;DHT22;11727;52.134;5.052;2022-11-04T09:27:00;9.80;99.90
23116;DHT22;11727;52.134;5.052;2022-11-04T09:29:26;9.80;99.90
23116;DHT22;11727;52.134;5.052;2022-11-04T09:31:52;9.90;99.90
23116;DHT22;11727;52.134;5.052;2022-11-04T09:34:18;9.90;99.90
23116;DHT22;11727;52.134;5.052;2022-11-04T09:36:43;10.00;99.90
23116;DHT22;11727;52.134;5.052;2022-11-04T09:39:10;10.10;99.90
23116;DHT22;11727;52.134;5.052;2022-11-04T09:46:59;10.40;99.90
23116;DHT22;11727;52.134;5.052;2022-11-04T09:49:34;10.40;99.90
23116;DHT22;11727;52.134;5.052;2022-11-04T09:52:03;10.50;99.90
23116;DHT22;11727;52.134;5.052;2022-11-04T09:54:42;10.60;99.90
23116;DHT22;11727;52.134;5.052;2022-11-04T09:57:17;10.60;99.90
23116;DHT22;11727;52.134;5.052;2022-11-04T09:59:43;10.60;99.90
23116;DHT22;11727;52.134;5.052;2022-11-04T10:07:33;10.70;99.90
23116;DHT22;11727;52.134;5.052;2022-11-04T10:24:01;11.10;99.90
23116;DHT22;11727;52.134;5.052;2022-11-04T10:26:40;11.10;99.90
23116;DHT22;11727;52.134;5.052;2022-11-04T10:29:16;11.10;99.90
23116;DHT22;11727;52.134;5.052;2022-11-04T10:31:45;11.20;99.90
23116;DHT22;11727;52.134;5.052;2022-11-04T10:34:35;11.20;99.90
23116;DHT22;11727;52.134;5.052;2022-11-04T10:37:02;11.30;99.90
23116;DHT22;11727;52.134;5.052;2022-11-04T10:39:30;11.30;99.90
23116;DHT22;11727;52.134;5.052;2022-11-04T10:41:57;11.20;99.90
23116;DHT22;11727;52.134;5.052;2022-11-04T10:44:31;11.30;99.90
23116;DHT22;11727;52.134;5.052;2022-11-04T10:47:15;11.30;99.90
23116;DHT22;11727;52.134;5.052;2022-11-04T10:52:27;11.40;99.90
23116;DHT22;11727;52.134;5.052;2022-11-04T10:54:53;11.40;99.90
23116;DHT22;11727;52.134;5.052;2022-11-04T10:57:21;11.40;99.90
23116;DHT22;11727;52.134;5.052;2022-11-04T10:59:50;11.40;99.90
23116;DHT22;11727;52.134;5.052;2022-11-04T11:02:16;11.50;99.90
23116;DHT22;11727;52.134;5.052;2022-11-04T11:04:41;11.50;99.90
23116;DHT22;11727;52.134;5.052;2022-11-04T11:07:12;11.60;99.90
23116;DHT22;11727;52.134;5.052;2022-11-04T11:09:52;11.60;99.90
23116;DHT22;11727;52.134;5.052;2022-11-04T11:12:20;11.70;99.90
23116;DHT22;11727;52.134;5.052;2022-11-04T11:14:55;11.80;99.90
23116;DHT22;11727;52.134;5.052;2022-11-04T11:20:00;11.80;99.90
23116;DHT22;11727;52.134;5.052;2022-11-04T11:22:36;11.80;99.90
23116;DHT22;11727;52.134;5.052;2022-11-04T11:27:37;11.80;99.90
23116;DHT22;11727;52.134;5.052;2022-11-04T11:30:03;11.80;99.90
23116;DHT22;11727;52.134;5.052;2022-11-04T11:32:33;11.80;99.90
23116;DHT22;11727;52.134;5.052;2022-11-04T11:35:00;11.80;99.90
23116;DHT22;11727;52.134;5.052;2022-11-04T11:37:28;11.80;99.90
23116;DHT22;11727;52.134;5.052;2022-11-04T11:39:56;11.90;99.90
23116;DHT22;11727;52.134;5.052;2022-11-04T11:42:22;11.90;99.90
23116;DHT22;11727;52.134;5.052;2022-11-04T11:44:50;12.00;99.90
23116;DHT22;11727;52.134;5.052;2022-11-04T11:50:17;12.00;99.90
23116;DHT22;11727;52.134;5.052;2022-11-04T11:52:44;12.00;99.90
23116;DHT22;11727;52.134;5.052;2022-11-04T11:55:33;12.00;99.90
23116;DHT22;11727;52.134;5.052;2022-11-04T11:58:21;12.00;99.90
23116;DHT22;11727;52.134;5.052;2022-11-04T12:01:02;12.00;99.90
23116;DHT22;11727;52.134;5.052;2022-11-04T12:03:48;12.00;99.90
23116;DHT22;11727;52.134;5.052;2022-11-04T12:06:31;12.00;99.90
23116;DHT22;11727;52.134;5.052;2022-11-04T12:12:00;12.00;99.90
23116;DHT22;11727;52.134;5.052;2022-11-04T12:14:53;12.00;99.90
23116;DHT22;11727;52.134;5.052;2022-11-04T12:23:22;12.10;99.90
23116;DHT22;11727;52.134;5.052;2022-11-04T12:28:41;12.10;99.90
23116;DHT22;11727;52.134;5.052;2022-11-04T12:36:39;12.20;99.90
23116;DHT22;11727;52.134;5.052;2022-11-04T12:39:16;12.20;99.90
23116;DHT22;11727;52.134;5.052;2022-11-04T12:44:47;12.30;99.90
23116;DHT22;11727;52.134;5.052;2022-11-04T12:47:34;12.40;99.90
23116;DHT22;11727;52.134;5.052;2022-11-04T12:53:14;12.20;99.90
23116;DHT22;11727;52.134;5.052;2022-11-04T12:56:08;12.00;99.90
23116;DHT22;11727;52.134;5.052;2022-11-04T13:01:20;11.70;99.90
23116;DHT22;11727;52.134;5.052;2022-11-04T13:03:57;11.60;99.90
23116;DHT22;11727;52.134;5.052;2022-11-04T13:06:53;11.40;99.90
23116;DHT22;11727;52.134;5.052;2022-11-04T13:10:03;11.40;99.90
23116;DHT22;11727;52.134;5.052;2022-11-04T13:12:18;11.30;99.90
23116;DHT22;11727;52.134;5.052;2022-11-04T13:14:51;11.40;99.90
23116;DHT22;11727;52.134;5.052;2022-11-04T13:17:21;11.40;99.90
23116;DHT22;11727;52.134;5.052;2022-11-04T13:19:50;11.40;99.90
23116;DHT22;11727;52.134;5.052;2022-11-04T13:22:30;11.50;99.90
23116;DHT22;11727;52.134;5.052;2022-11-04T13:25:03;11.60;99.90
23116;DHT22;11727;52.134;5.052;2022-11-04T13:27:34;11.70;99.90
23116;DHT22;11727;52.134;5.052;2022-11-04T13:30:22;11.80;99.90
23116;DHT22;11727;52.134;5.052;2022-11-04T13:33:11;11.80;99.90
23116;DHT22;11727;52.134;5.052;2022-11-04T13:38:30;11.90;99.90
23116;DHT22;11727;52.134;5.052;2022-11-04T13:43:55;11.80;99.90
23116;DHT22;11727;52.134;5.052;2022-11-04T13:51:19;11.70;99.90
23116;DHT22;11727;52.134;5.052;2022-11-04T13:53:54;11.60;99.90
23116;DHT22;11727;52.134;5.052;2022-11-04T13:56:40;11.70;99.90
23116;DHT22;11727;52.134;5.052;2022-11-04T13:59:28;11.70;99.90
23116;DHT22;11727;52.134;5.052;2022-11-04T14:04:42;11.70;99.90
23116;DHT22;11727;52.134;5.052;2022-11-04T14:07:16;11.70;99.90
23116;DHT22;11727;52.134;5.052;2022-11-04T14:14:44;11.60;99.90
23116;DHT22;11727;52.134;5.052;2022-11-04T14:25:02;11.50;99.90
23116;DHT22;11727;52.134;5.052;2022-11-04T14:27:40;11.50;99.90
23116;DHT22;11727;52.134;5.052;2022-11-04T14:30:16;11.50;99.90
23116;DHT22;11727;52.134;5.052;2022-11-04T14:32:55;11.50;99.90
23116;DHT22;11727;52.134;5.052;2022-11-04T14:35:23;11.50;99.90
23116;DHT22;11727;52.134;5.052;2022-11-04T14:37:53;11.50;99.90
23116;DHT22;11727;52.134;5.052;2022-11-04T14:40:28;11.50;99.90
23116;DHT22;11727;52.134;5.052;2022-11-04T14:43:18;11.50;99.90
23116;DHT22;11727;52.134;5.052;2022-11-04T14:45:48;11.50;99.90
23116;DHT22;11727;52.134;5.052;2022-11-04T14:48:18;11.50;99.90
23116;DHT22;11727;52.134;5.052;2022-11-04T14:50:48;11.50;99.90
23116;DHT22;11727;52.134;5.052;2022-11-04T14:53:25;11.50;99.90
23116;DHT22;11727;52.134;5.052;2022-11-04T14:56:12;11.50;99.90
23116;DHT22;11727;52.134;5.052;2022-11-04T14:58:38;11.50;99.90
23116;DHT22;11727;52.134;5.052;2022-11-04T15:01:15;11.50;99.90
23116;DHT22;11727;52.134;5.052;2022-11-04T15:03:41;11.50;99.90
23116;DHT22;11727;52.134;5.052;2022-11-04T15:06:09;11.50;99.90
23116;DHT22;11727;52.134;5.052;2022-11-04T15:08:44;11.50;99.90
23116;DHT22;11727;52.134;5.052;2022-11-04T15:13:37;11.40;99.90
23116;DHT22;11727;52.134;5.052;2022-11-04T15:16:23;11.40;99.90
23116;DHT22;11727;52.134;5.052;2022-11-04T15:18:51;11.40;99.90
23116;DHT22;11727;52.134;5.052;2022-11-04T15:21:17;11.30;99.90
23116;DHT22;11727;52.134;5.052;2022-11-04T15:23:46;11.30;99.90
23116;DHT22;11727;52.134;5.052;2022-11-04T15:26:32;11.30;99.90
23116;DHT22;11727;52.134;5.052;2022-11-04T15:29:06;11.30;99.90
23116;DHT22;11727;52.134;5.052;2022-11-04T15:31:33;11.20;99.90
23116;DHT22;11727;52.134;5.052;2022-11-04T15:34:02;11.20;99.90
23116;DHT22;11727;52.134;5.052;2022-11-04T15:36:35;11.20;99.90
23116;DHT22;11727;52.134;5.052;2022-11-04T15:41:44;11.00;99.90
23116;DHT22;11727;52.134;5.052;2022-11-04T15:44:31;11.00;99.90
23116;DHT22;11727;52.134;5.052;2022-11-04T15:49:49;11.00;99.90
23116;DHT22;11727;52.134;5.052;2022-11-04T15:52:21;10.90;99.90
23116;DHT22;11727;52.134;5.052;2022-11-04T15:54:52;10.80;99.90
23116;DHT22;11727;52.134;5.052;2022-11-04T15:57:39;10.80;99.90
23116;DHT22;11727;52.134;5.052;2022-11-04T16:00:18;10.70;99.90
23116;DHT22;11727;52.134;5.052;2022-11-04T16:02:49;10.70;99.90
23116;DHT22;11727;52.134;5.052;2022-11-04T16:07:42;10.70;99.90
23116;DHT22;11727;52.134;5.052;2022-11-04T16:10:24;10.60;99.90
23116;DHT22;11727;52.134;5.052;2022-11-04T16:13:20;10.60;99.90
23116;DHT22;11727;52.134;5.052;2022-11-04T16:18:25;10.50;99.90
23116;DHT22;11727;52.134;5.052;2022-11-04T16:20:55;10.40;99.90
23116;DHT22;11727;52.134;5.052;2022-11-04T16:23:24;10.30;99.90
23116;DHT22;11727;52.134;5.052;2022-11-04T16:25:57;10.30;99.90
23116;DHT22;11727;52.134;5.052;2022-11-04T16:28:23;10.30;99.90
23116;DHT22;11727;52.134;5.052;2022-11-04T16:31:01;10.30;99.90
23116;DHT22;11727;52.134;5.052;2022-11-04T16:33:27;10.30;99.90
23116;DHT22;11727;52.134;5.052;2022-11-04T16:35:53;10.20;99.90
23116;DHT22;11727;52.134;5.052;2022-11-04T16:38:18;10.20;99.90
23116;DHT22;11727;52.134;5.052;2022-11-04T16:40:46;10.10;99.90
23116;DHT22;11727;52.134;5.052;2022-11-04T16:43:15;10.20;99.90
23116;DHT22;11727;52.134;5.052;2022-11-04T16:45:45;10.10;99.90
23116;DHT22;11727;52.134;5.052;2022-11-04T16:48:23;10.10;99.90
23116;DHT22;11727;52.134;5.052;2022-11-04T16:50:48;10.10;99.90
23116;DHT22;11727;52.134;5.052;2022-11-04T16:53:14;10.10;99.90
23116;DHT22;11727;52.134;5.052;2022-11-04T16:55:41;10.10;99.90
23116;DHT22;11727;52.134;5.052;2022-11-04T16:58:13;10.10;99.90
23116;DHT22;11727;52.134;5.052;2022-11-04T17:00:40;10.10;99.90
23116;DHT22;11727;52.134;5.052;2022-11-04T17:03:23;10.10;99.90
23116;DHT22;11727;52.134;5.052;2022-11-04T17:05:51;10.00;99.90
23116;DHT22;11727;52.134;5.052;2022-11-04T17:08:18;10.00;99.90
23116;DHT22;11727;52.134;5.052;2022-11-04T17:10:44;10.00;99.90
23116;DHT22;11727;52.134;5.052;2022-11-04T17:13:10;10.00;99.90
23116;DHT22;11727;52.134;5.052;2022-11-04T17:15:36;10.00;99.90
23116;DHT22;11727;52.134;5.052;2022-11-04T17:18:01;10.00;99.90
23116;DHT22;11727;52.134;5.052;2022-11-04T17:20:27;9.90;99.90
23116;DHT22;11727;52.134;5.052;2022-11-04T17:22:54;10.00;99.90
23116;DHT22;11727;52.134;5.052;2022-11-04T17:25:25;9.90;99.90
23116;DHT22;11727;52.134;5.052;2022-11-04T17:27:51;9.90;99.90
23116;DHT22;11727;52.134;5.052;2022-11-04T17:30:18;9.90;99.90
23116;DHT22;11727;52.134;5.052;2022-11-04T17:32:46;9.90;99.90
23116;DHT22;11727;52.134;5.052;2022-11-04T17:35:12;9.90;99.90
23116;DHT22;11727;52.134;5.052;2022-11-04T17:37:38;9.90;99.90
23116;DHT22;11727;52.134;5.052;2022-11-04T17:40:05;9.90;99.90
23116;DHT22;11727;52.134;5.052;2022-11-04T17:42:30;9.90;99.90
23116;DHT22;11727;52.134;5.052;2022-11-04T17:45:15;9.90;99.90
23116;DHT22;11727;52.134;5.052;2022-11-04T17:47:41;9.90;99.90
23116;DHT22;11727;52.134;5.052;2022-11-04T17:50:07;9.90;99.90
23116;DHT22;11727;52.134;5.052;2022-11-04T17:52:35;9.80;99.90
23116;DHT22;11727;52.134;5.052;2022-11-04T17:55:02;9.80;99.90
23116;DHT22;11727;52.134;5.052;2022-11-04T17:57:29;9.80;99.90
23116;DHT22;11727;52.134;5.052;2022-11-04T17:59:55;9.80;99.90
23116;DHT22;11727;52.134;5.052;2022-11-04T18:02:20;9.80;99.90
23116;DHT22;11727;52.134;5.052;2022-11-04T18:04:46;9.70;99.90
23116;DHT22;11727;52.134;5.052;2022-11-04T18:07:11;9.70;99.90